sensor_id;sensor_type;location;lat;lon;timestamp;P1;durP1;ratioP1;P2;durP2;ratioP2
25509;SDS011;13413;52.336;21.200;2022-12-29T00:04:11;14.60;;;9.10;;
25509;SDS011;13413;52.336;21.200;2022-12-29T00:07:06;14.90;;;10.00;;
25509;SDS011;13413;52.336;21.200;2022-12-29T00:10:00;19.80;;;9.80;;
25509;SDS011;13413;52.336;21.200;2022-12-29T00:12:54;18.70;;;10.60;;
25509;SDS011;13413;52.336;21.200;2022-12-29T00:15:48;19.40;;;11.00;;
25509;SDS011;13413;52.336;21.200;2022-12-29T00:18:42;15.30;;;9.70;;
25509;SDS011;13413;52.336;21.200;2022-12-29T00:21:36;18.00;;;10.10;;
25509;SDS011;13413;52.336;21.200;2022-12-29T00:24:30;14.70;;;10.30;;
25509;SDS011;13413;52.336;21.200;2022-12-29T00:27:25;16.10;;;9.40;;
25509;SDS011;13413;52.336;21.200;2022-12-29T00:30:21;19.00;;;9.40;;
25509;SDS011;13413;52.336;21.200;2022-12-29T00:33:16;15.90;;;9.60;;
25509;SDS011;13413;52.336;21.200;2022-12-29T00:36:12;17.50;;;10.30;;
25509;SDS011;13413;52.336;21.200;2022-12-29T00:39:12;16.50;;;9.70;;
25509;SDS011;13413;52.336;21.200;2022-12-29T00:45:04;16.30;;;9.60;;
25509;SDS011;13413;52.336;21.200;2022-12-29T00:50:50;17.30;;;9.60;;
25509;SDS011;13413;52.336;21.200;2022-12-29T00:53:49;15.40;;;8.80;;
25509;SDS011;13413;52.336;21.200;2022-12-29T00:56:43;14.20;;;8.50;;
25509;SDS011;13413;52.336;21.200;2022-12-29T00:59:40;16.30;;;8.70;;
25509;SDS011;13413;52.336;21.200;2022-12-29T01:02:34;17.70;;;9.30;;
25509;SDS011;13413;52.336;21.200;2022-12-29T01:05:28;18.00;;;8.80;;
25509;SDS011;13413;52.336;21.200;2022-12-29T01:08:22;10.60;;;7.20;;
25509;SDS011;13413;52.336;21.200;2022-12-29T01:16:12;18.00;;;8.90;;
25509;SDS011;13413;52.336;21.200;2022-12-29T01:19:06;14.10;;;9.00;;
25509;SDS011;13413;52.336;21.200;2022-12-29T01:22:01;14.30;;;8.80;;
25509;SDS011;13413;52.336;21.200;2022-12-29T01:24:55;18.10;;;9.80;;
25509;SDS011;13413;52.336;21.200;2022-12-29T01:27:49;13.90;;;8.50;;
25509;SDS011;13413;52.336;21.200;2022-12-29T01:30:42;13.90;;;8.40;;
25509;SDS011;13413;52.336;21.200;2022-12-29T01:33:37;14.90;;;9.00;;
25509;SDS011;13413;52.336;21.200;2022-12-29T01:36:32;13.50;;;8.60;;
25509;SDS011;13413;52.336;21.200;2022-12-29T01:39:26;8.90;;;6.80;;
25509;SDS011;13413;52.336;21.200;2022-12-29T01:45:15;14.30;;;8.80;;
25509;SDS011;13413;52.336;21.200;2022-12-29T01:48:10;13.40;;;8.70;;
25509;SDS011;13413;52.336;21.200;2022-12-29T01:51:05;15.60;;;8.10;;
25509;SDS011;13413;52.336;21.200;2022-12-29T01:54:01;16.20;;;7.80;;
25509;SDS011;13413;52.336;21.200;2022-12-29T01:57:00;11.20;;;7.20;;
25509;SDS011;13413;52.336;21.200;2022-12-29T01:59:58;11.30;;;7.50;;
25509;SDS011;13413;52.336;21.200;2022-12-29T02:02:56;14.40;;;8.00;;
25509;SDS011;13413;52.336;21.200;2022-12-29T02:05:52;14.00;;;8.10;;
25509;SDS011;13413;52.336;21.200;2022-12-29T02:08:50;17.70;;;7.80;;
25509;SDS011;13413;52.336;21.200;2022-12-29T02:11:47;12.00;;;6.70;;
25509;SDS011;13413;52.336;21.200;2022-12-29T02:14:41;13.10;;;7.50;;
25509;SDS011;13413;52.336;21.200;2022-12-29T02:17:41;11.90;;;7.20;;
25509;SDS011;13413;52.336;21.200;2022-12-29T02:20:57;11.50;;;6.50;;
25509;SDS011;13413;52.336;21.200;2022-12-29T02:27:51;13.50;;;7.50;;
25509;SDS011;13413;52.336;21.200;2022-12-29T02:30:57;19.00;;;7.90;;
25509;SDS011;13413;52.336;21.200;2022-12-29T02:34:06;10.70;;;7.20;;
25509;SDS011;13413;52.336;21.200;2022-12-29T02:37:04;12.50;;;7.70;;
25509;SDS011;13413;52.336;21.200;2022-12-29T02:40:06;14.40;;;6.80;;
25509;SDS011;13413;52.336;21.200;2022-12-29T02:43:11;13.50;;;7.50;;
25509;SDS011;13413;52.336;21.200;2022-12-29T02:46:15;10.10;;;6.20;;
25509;SDS011;13413;52.336;21.200;2022-12-29T02:49:15;13.40;;;6.90;;
25509;SDS011;13413;52.336;21.200;2022-12-29T02:52:17;14.50;;;7.80;;
25509;SDS011;13413;52.336;21.200;2022-12-29T02:55:17;17.00;;;7.50;;
25509;SDS011;13413;52.336;21.200;2022-12-29T02:58:16;9.90;;;6.60;;
25509;SDS011;13413;52.336;21.200;2022-12-29T03:01:21;15.30;;;7.00;;
25509;SDS011;13413;52.336;21.200;2022-12-29T03:04:23;12.90;;;7.30;;
25509;SDS011;13413;52.336;21.200;2022-12-29T03:07:28;13.40;;;7.50;;
25509;SDS011;13413;52.336;21.200;2022-12-29T03:10:34;13.90;;;7.40;;
25509;SDS011;13413;52.336;21.200;2022-12-29T03:13:49;13.00;;;7.50;;
25509;SDS011;13413;52.336;21.200;2022-12-29T03:16:49;13.50;;;7.10;;
25509;SDS011;13413;52.336;21.200;2022-12-29T03:19:47;9.50;;;6.40;;
25509;SDS011;13413;52.336;21.200;2022-12-29T03:22:49;12.50;;;7.10;;
25509;SDS011;13413;52.336;21.200;2022-12-29T03:25:48;8.00;;;6.20;;
25509;SDS011;13413;52.336;21.200;2022-12-29T03:34:49;10.90;;;6.70;;
25509;SDS011;13413;52.336;21.200;2022-12-29T03:37:46;16.80;;;7.80;;
25509;SDS011;13413;52.336;21.200;2022-12-29T03:40:45;13.10;;;7.70;;
25509;SDS011;13413;52.336;21.200;2022-12-29T03:46:35;15.30;;;7.80;;
25509;SDS011;13413;52.336;21.200;2022-12-29T03:49:29;10.50;;;6.60;;
25509;SDS011;13413;52.336;21.200;2022-12-29T03:52:23;14.30;;;7.30;;
25509;SDS011;13413;52.336;21.200;2022-12-29T03:55:17;11.30;;;6.50;;
25509;SDS011;13413;52.336;21.200;2022-12-29T03:58:11;11.80;;;6.60;;
25509;SDS011;13413;52.336;21.200;2022-12-29T04:01:05;11.10;;;6.70;;
25509;SDS011;13413;52.336;21.200;2022-12-29T04:03:59;14.70;;;7.80;;
25509;SDS011;13413;52.336;21.200;2022-12-29T04:06:53;14.10;;;8.00;;
25509;SDS011;13413;52.336;21.200;2022-12-29T04:09:50;14.60;;;6.20;;
25509;SDS011;13413;52.336;21.200;2022-12-29T04:12:44;11.80;;;7.10;;
25509;SDS011;13413;52.336;21.200;2022-12-29T04:15:40;14.00;;;7.40;;
25509;SDS011;13413;52.336;21.200;2022-12-29T04:18:34;10.50;;;6.90;;
25509;SDS011;13413;52.336;21.200;2022-12-29T04:21:28;10.30;;;7.20;;
25509;SDS011;13413;52.336;21.200;2022-12-29T04:24:22;12.90;;;7.10;;
25509;SDS011;13413;52.336;21.200;2022-12-29T04:27:16;12.10;;;7.20;;
25509;SDS011;13413;52.336;21.200;2022-12-29T04:30:11;12.90;;;7.70;;
25509;SDS011;13413;52.336;21.200;2022-12-29T04:35:58;15.60;;;9.10;;
25509;SDS011;13413;52.336;21.200;2022-12-29T04:38:52;16.30;;;8.40;;
25509;SDS011;13413;52.336;21.200;2022-12-29T04:41:46;14.20;;;8.20;;
25509;SDS011;13413;52.336;21.200;2022-12-29T04:44:40;11.70;;;6.30;;
25509;SDS011;13413;52.336;21.200;2022-12-29T04:47:34;18.00;;;9.90;;
25509;SDS011;13413;52.336;21.200;2022-12-29T04:50:28;17.30;;;9.60;;
25509;SDS011;13413;52.336;21.200;2022-12-29T04:53:22;20.40;;;9.80;;
25509;SDS011;13413;52.336;21.200;2022-12-29T04:56:16;17.90;;;9.70;;
25509;SDS011;13413;52.336;21.200;2022-12-29T04:59:10;18.60;;;9.90;;
25509;SDS011;13413;52.336;21.200;2022-12-29T05:02:04;20.70;;;10.40;;
25509;SDS011;13413;52.336;21.200;2022-12-29T05:04:58;16.50;;;10.20;;
25509;SDS011;13413;52.336;21.200;2022-12-29T05:07:52;17.80;;;10.20;;
25509;SDS011;13413;52.336;21.200;2022-12-29T05:10:46;20.10;;;11.30;;
25509;SDS011;13413;52.336;21.200;2022-12-29T05:13:44;25.20;;;11.40;;
25509;SDS011;13413;52.336;21.200;2022-12-29T05:16:38;18.50;;;10.90;;
25509;SDS011;13413;52.336;21.200;2022-12-29T05:19:32;21.90;;;12.30;;
25509;SDS011;13413;52.336;21.200;2022-12-29T05:22:26;19.50;;;12.00;;
25509;SDS011;13413;52.336;21.200;2022-12-29T05:25:20;25.50;;;11.90;;
25509;SDS011;13413;52.336;21.200;2022-12-29T05:28:14;21.60;;;11.10;;
25509;SDS011;13413;52.336;21.200;2022-12-29T05:31:08;21.40;;;11.30;;
25509;SDS011;13413;52.336;21.200;2022-12-29T05:34:02;23.10;;;11.40;;
25509;SDS011;13413;52.336;21.200;2022-12-29T05:36:56;19.80;;;10.20;;
25509;SDS011;13413;52.336;21.200;2022-12-29T05:39:50;16.90;;;8.60;;
25509;SDS011;13413;52.336;21.200;2022-12-29T05:42:44;17.20;;;10.10;;
25509;SDS011;13413;52.336;21.200;2022-12-29T05:51:21;19.70;;;11.40;;
25509;SDS011;13413;52.336;21.200;2022-12-29T05:54:15;21.00;;;11.20;;
25509;SDS011;13413;52.336;21.200;2022-12-29T05:57:09;24.20;;;10.60;;
25509;SDS011;13413;52.336;21.200;2022-12-29T06:00:03;22.40;;;12.70;;
25509;SDS011;13413;52.336;21.200;2022-12-29T06:03:11;27.00;;;12.80;;
25509;SDS011;13413;52.336;21.200;2022-12-29T06:06:05;19.80;;;11.70;;
25509;SDS011;13413;52.336;21.200;2022-12-29T06:09:02;21.40;;;11.60;;
25509;SDS011;13413;52.336;21.200;2022-12-29T06:11:56;23.90;;;10.90;;
25509;SDS011;13413;52.336;21.200;2022-12-29T06:14:50;22.50;;;11.00;;
25509;SDS011;13413;52.336;21.200;2022-12-29T06:17:44;20.10;;;10.50;;
25509;SDS011;13413;52.336;21.200;2022-12-29T06:20:38;21.50;;;10.70;;
25509;SDS011;13413;52.336;21.200;2022-12-29T06:23:32;21.10;;;11.00;;
25509;SDS011;13413;52.336;21.200;2022-12-29T06:26:26;19.20;;;9.30;;
25509;SDS011;13413;52.336;21.200;2022-12-29T06:29:20;21.10;;;11.70;;
25509;SDS011;13413;52.336;21.200;2022-12-29T06:32:14;20.60;;;11.90;;
25509;SDS011;13413;52.336;21.200;2022-12-29T06:35:09;26.20;;;12.60;;
25509;SDS011;13413;52.336;21.200;2022-12-29T06:38:16;24.90;;;11.60;;
25509;SDS011;13413;52.336;21.200;2022-12-29T06:41:10;23.70;;;12.70;;
25509;SDS011;13413;52.336;21.200;2022-12-29T06:44:04;18.70;;;11.20;;
25509;SDS011;13413;52.336;21.200;2022-12-29T06:46:58;25.50;;;12.80;;
25509;SDS011;13413;52.336;21.200;2022-12-29T06:49:52;19.10;;;10.80;;
25509;SDS011;13413;52.336;21.200;2022-12-29T06:52:46;19.60;;;10.60;;
25509;SDS011;13413;52.336;21.200;2022-12-29T06:55:40;19.50;;;11.30;;
25509;SDS011;13413;52.336;21.200;2022-12-29T06:58:35;22.60;;;11.20;;
25509;SDS011;13413;52.336;21.200;2022-12-29T07:01:29;26.80;;;13.00;;
25509;SDS011;13413;52.336;21.200;2022-12-29T07:04:23;20.70;;;10.70;;
25509;SDS011;13413;52.336;21.200;2022-12-29T07:07:17;37.70;;;18.30;;
25509;SDS011;13413;52.336;21.200;2022-12-29T07:10:11;43.20;;;18.50;;
25509;SDS011;13413;52.336;21.200;2022-12-29T07:13:05;53.50;;;22.10;;
25509;SDS011;13413;52.336;21.200;2022-12-29T07:15:59;80.30;;;29.90;;
25509;SDS011;13413;52.336;21.200;2022-12-29T07:18:56;54.20;;;22.70;;
25509;SDS011;13413;52.336;21.200;2022-12-29T07:21:50;47.20;;;21.60;;
25509;SDS011;13413;52.336;21.200;2022-12-29T07:24:46;31.80;;;13.70;;
25509;SDS011;13413;52.336;21.200;2022-12-29T07:27:40;61.20;;;23.20;;
25509;SDS011;13413;52.336;21.200;2022-12-29T07:30:36;78.60;;;31.70;;
25509;SDS011;13413;52.336;21.200;2022-12-29T07:33:30;44.50;;;19.20;;
25509;SDS011;13413;52.336;21.200;2022-12-29T07:39:17;22.40;;;13.40;;
25509;SDS011;13413;52.336;21.200;2022-12-29T07:42:11;65.80;;;25.90;;
25509;SDS011;13413;52.336;21.200;2022-12-29T07:45:06;36.10;;;16.30;;
25509;SDS011;13413;52.336;21.200;2022-12-29T07:48:02;95.20;;;37.20;;
25509;SDS011;13413;52.336;21.200;2022-12-29T07:53:49;24.70;;;13.80;;
25509;SDS011;13413;52.336;21.200;2022-12-29T07:56:43;20.20;;;10.20;;
25509;SDS011;13413;52.336;21.200;2022-12-29T07:59:37;44.60;;;21.40;;
25509;SDS011;13413;52.336;21.200;2022-12-29T08:02:31;22.10;;;12.90;;
25509;SDS011;13413;52.336;21.200;2022-12-29T08:11:23;19.60;;;11.80;;
25509;SDS011;13413;52.336;21.200;2022-12-29T08:14:17;24.10;;;11.40;;
25509;SDS011;13413;52.336;21.200;2022-12-29T08:17:11;22.90;;;12.60;;
25509;SDS011;13413;52.336;21.200;2022-12-29T08:20:06;16.30;;;9.30;;
25509;SDS011;13413;52.336;21.200;2022-12-29T08:23:01;25.20;;;15.40;;
25509;SDS011;13413;52.336;21.200;2022-12-29T08:25:58;18.20;;;11.20;;
25509;SDS011;13413;52.336;21.200;2022-12-29T08:28:53;17.00;;;9.80;;
25509;SDS011;13413;52.336;21.200;2022-12-29T08:31:47;18.70;;;11.20;;
25509;SDS011;13413;52.336;21.200;2022-12-29T08:34:41;18.00;;;9.40;;
25509;SDS011;13413;52.336;21.200;2022-12-29T08:37:35;19.00;;;11.30;;
25509;SDS011;13413;52.336;21.200;2022-12-29T08:40:29;20.40;;;11.20;;
25509;SDS011;13413;52.336;21.200;2022-12-29T08:43:23;21.50;;;11.80;;
25509;SDS011;13413;52.336;21.200;2022-12-29T08:46:17;16.00;;;10.10;;
25509;SDS011;13413;52.336;21.200;2022-12-29T08:49:11;18.70;;;9.90;;
25509;SDS011;13413;52.336;21.200;2022-12-29T08:52:05;19.50;;;10.90;;
25509;SDS011;13413;52.336;21.200;2022-12-29T08:54:59;17.40;;;10.60;;
25509;SDS011;13413;52.336;21.200;2022-12-29T08:57:53;16.50;;;9.80;;
25509;SDS011;13413;52.336;21.200;2022-12-29T09:00:47;20.60;;;10.20;;
25509;SDS011;13413;52.336;21.200;2022-12-29T09:03:43;17.50;;;9.50;;
25509;SDS011;13413;52.336;21.200;2022-12-29T09:09:32;18.10;;;9.20;;
25509;SDS011;13413;52.336;21.200;2022-12-29T09:12:27;18.30;;;9.60;;
25509;SDS011;13413;52.336;21.200;2022-12-29T09:15:21;18.90;;;9.40;;
25509;SDS011;13413;52.336;21.200;2022-12-29T09:18:15;15.80;;;9.50;;
25509;SDS011;13413;52.336;21.200;2022-12-29T09:21:10;15.20;;;9.00;;
25509;SDS011;13413;52.336;21.200;2022-12-29T09:24:04;17.30;;;9.50;;
25509;SDS011;13413;52.336;21.200;2022-12-29T09:26:59;21.00;;;10.70;;
25509;SDS011;13413;52.336;21.200;2022-12-29T09:29:53;15.10;;;8.70;;
25509;SDS011;13413;52.336;21.200;2022-12-29T09:32:49;16.60;;;9.40;;
25509;SDS011;13413;52.336;21.200;2022-12-29T09:38:37;12.60;;;8.40;;
25509;SDS011;13413;52.336;21.200;2022-12-29T09:41:32;12.30;;;7.40;;
25509;SDS011;13413;52.336;21.200;2022-12-29T09:44:36;15.60;;;7.90;;
25509;SDS011;13413;52.336;21.200;2022-12-29T09:50:39;15.40;;;7.70;;
25509;SDS011;13413;52.336;21.200;2022-12-29T09:53:39;18.00;;;7.70;;
25509;SDS011;13413;52.336;21.200;2022-12-29T09:56:36;11.80;;;7.50;;
25509;SDS011;13413;52.336;21.200;2022-12-29T09:59:35;13.10;;;7.90;;
25509;SDS011;13413;52.336;21.200;2022-12-29T10:02:36;13.90;;;8.00;;
25509;SDS011;13413;52.336;21.200;2022-12-29T10:05:34;13.00;;;8.10;;
25509;SDS011;13413;52.336;21.200;2022-12-29T10:08:37;16.00;;;8.40;;
25509;SDS011;13413;52.336;21.200;2022-12-29T10:11:42;16.70;;;8.90;;
25509;SDS011;13413;52.336;21.200;2022-12-29T10:14:53;14.40;;;7.50;;
25509;SDS011;13413;52.336;21.200;2022-12-29T10:17:58;11.70;;;7.20;;
25509;SDS011;13413;52.336;21.200;2022-12-29T10:32:25;13.10;;;6.70;;
25509;SDS011;13413;52.336;21.200;2022-12-29T10:35:23;15.40;;;6.90;;
25509;SDS011;13413;52.336;21.200;2022-12-29T10:38:23;14.70;;;8.30;;
25509;SDS011;13413;52.336;21.200;2022-12-29T10:41:23;16.70;;;7.90;;
25509;SDS011;13413;52.336;21.200;2022-12-29T10:44:21;14.80;;;6.90;;
25509;SDS011;13413;52.336;21.200;2022-12-29T10:47:19;14.80;;;8.10;;
25509;SDS011;13413;52.336;21.200;2022-12-29T10:50:17;14.60;;;8.10;;
25509;SDS011;13413;52.336;21.200;2022-12-29T10:59:06;14.30;;;7.80;;
25509;SDS011;13413;52.336;21.200;2022-12-29T11:02:13;13.10;;;7.50;;
25509;SDS011;13413;52.336;21.200;2022-12-29T11:05:21;11.70;;;7.60;;
25509;SDS011;13413;52.336;21.200;2022-12-29T11:08:24;14.70;;;8.40;;
25509;SDS011;13413;52.336;21.200;2022-12-29T11:11:26;16.10;;;9.60;;
25509;SDS011;13413;52.336;21.200;2022-12-29T11:14:27;14.30;;;8.00;;
25509;SDS011;13413;52.336;21.200;2022-12-29T11:17:22;16.80;;;9.40;;
25509;SDS011;13413;52.336;21.200;2022-12-29T11:20:33;13.00;;;8.10;;
25509;SDS011;13413;52.336;21.200;2022-12-29T11:23:32;19.80;;;9.80;;
25509;SDS011;13413;52.336;21.200;2022-12-29T11:26:28;16.10;;;9.20;;
25509;SDS011;13413;52.336;21.200;2022-12-29T11:29:25;15.80;;;9.60;;
25509;SDS011;13413;52.336;21.200;2022-12-29T11:32:21;20.20;;;10.30;;
25509;SDS011;13413;52.336;21.200;2022-12-29T11:35:29;26.60;;;13.60;;
25509;SDS011;13413;52.336;21.200;2022-12-29T11:38:25;22.70;;;13.30;;
25509;SDS011;13413;52.336;21.200;2022-12-29T11:41:28;18.90;;;12.80;;
25509;SDS011;13413;52.336;21.200;2022-12-29T11:44:24;17.60;;;10.50;;
25509;SDS011;13413;52.336;21.200;2022-12-29T11:47:25;20.60;;;10.10;;
25509;SDS011;13413;52.336;21.200;2022-12-29T11:50:22;17.10;;;9.80;;
25509;SDS011;13413;52.336;21.200;2022-12-29T11:53:19;16.10;;;9.30;;
25509;SDS011;13413;52.336;21.200;2022-12-29T11:56:18;20.30;;;8.90;;
25509;SDS011;13413;52.336;21.200;2022-12-29T11:59:34;14.90;;;8.10;;
25509;SDS011;13413;52.336;21.200;2022-12-29T12:02:34;18.40;;;8.50;;
25509;SDS011;13413;52.336;21.200;2022-12-29T12:05:35;16.30;;;9.10;;
25509;SDS011;13413;52.336;21.200;2022-12-29T12:08:35;14.50;;;9.30;;
25509;SDS011;13413;52.336;21.200;2022-12-29T12:11:36;21.70;;;11.60;;
25509;SDS011;13413;52.336;21.200;2022-12-29T12:14:34;16.50;;;9.20;;
25509;SDS011;13413;52.336;21.200;2022-12-29T12:17:35;23.30;;;11.80;;
25509;SDS011;13413;52.336;21.200;2022-12-29T12:20:44;15.00;;;9.40;;
25509;SDS011;13413;52.336;21.200;2022-12-29T12:23:46;17.90;;;10.70;;
25509;SDS011;13413;52.336;21.200;2022-12-29T12:27:01;16.60;;;10.00;;
25509;SDS011;13413;52.336;21.200;2022-12-29T12:30:03;23.80;;;10.90;;
25509;SDS011;13413;52.336;21.200;2022-12-29T12:33:04;19.60;;;11.30;;
25509;SDS011;13413;52.336;21.200;2022-12-29T12:36:14;23.60;;;11.70;;
25509;SDS011;13413;52.336;21.200;2022-12-29T12:39:21;17.70;;;10.30;;
25509;SDS011;13413;52.336;21.200;2022-12-29T12:51:30;15.70;;;8.70;;
25509;SDS011;13413;52.336;21.200;2022-12-29T12:54:45;15.60;;;8.90;;
25509;SDS011;13413;52.336;21.200;2022-12-29T12:57:52;19.50;;;8.90;;
25509;SDS011;13413;52.336;21.200;2022-12-29T13:00:57;16.00;;;8.60;;
25509;SDS011;13413;52.336;21.200;2022-12-29T13:04:05;18.20;;;8.70;;
25509;SDS011;13413;52.336;21.200;2022-12-29T13:07:16;16.70;;;9.80;;
25509;SDS011;13413;52.336;21.200;2022-12-29T13:10:21;16.30;;;9.90;;
25509;SDS011;13413;52.336;21.200;2022-12-29T13:13:32;15.50;;;8.90;;
25509;SDS011;13413;52.336;21.200;2022-12-29T13:16:41;15.40;;;9.30;;
25509;SDS011;13413;52.336;21.200;2022-12-29T13:19:44;16.80;;;10.00;;
25509;SDS011;13413;52.336;21.200;2022-12-29T13:22:46;19.40;;;12.80;;
25509;SDS011;13413;52.336;21.200;2022-12-29T13:25:50;26.60;;;15.60;;
25509;SDS011;13413;52.336;21.200;2022-12-29T13:28:51;23.30;;;13.70;;
25509;SDS011;13413;52.336;21.200;2022-12-29T13:31:52;20.10;;;11.00;;
25509;SDS011;13413;52.336;21.200;2022-12-29T13:34:56;16.50;;;10.40;;
25509;SDS011;13413;52.336;21.200;2022-12-29T13:38:03;17.10;;;10.10;;
25509;SDS011;13413;52.336;21.200;2022-12-29T13:41:03;13.30;;;9.30;;
25509;SDS011;13413;52.336;21.200;2022-12-29T13:43:59;13.40;;;9.90;;
25509;SDS011;13413;52.336;21.200;2022-12-29T13:46:56;16.10;;;9.70;;
25509;SDS011;13413;52.336;21.200;2022-12-29T13:49:54;18.70;;;9.40;;
25509;SDS011;13413;52.336;21.200;2022-12-29T13:52:55;15.60;;;9.20;;
25509;SDS011;13413;52.336;21.200;2022-12-29T13:55:56;15.00;;;9.70;;
25509;SDS011;13413;52.336;21.200;2022-12-29T13:59:01;19.70;;;10.60;;
25509;SDS011;13413;52.336;21.200;2022-12-29T14:02:02;20.50;;;11.40;;
25509;SDS011;13413;52.336;21.200;2022-12-29T14:05:04;17.60;;;11.10;;
25509;SDS011;13413;52.336;21.200;2022-12-29T14:08:21;18.10;;;10.10;;
25509;SDS011;13413;52.336;21.200;2022-12-29T14:11:17;15.60;;;9.80;;
25509;SDS011;13413;52.336;21.200;2022-12-29T14:14:16;19.00;;;10.40;;
25509;SDS011;13413;52.336;21.200;2022-12-29T14:17:16;21.40;;;11.70;;
25509;SDS011;13413;52.336;21.200;2022-12-29T14:20:19;22.00;;;11.50;;
25509;SDS011;13413;52.336;21.200;2022-12-29T14:23:25;19.70;;;11.10;;
25509;SDS011;13413;52.336;21.200;2022-12-29T14:29:44;18.00;;;10.60;;
25509;SDS011;13413;52.336;21.200;2022-12-29T14:32:39;17.40;;;11.20;;
25509;SDS011;13413;52.336;21.200;2022-12-29T14:35:55;17.00;;;9.70;;
25509;SDS011;13413;52.336;21.200;2022-12-29T14:42:40;20.80;;;9.70;;
25509;SDS011;13413;52.336;21.200;2022-12-29T14:45:35;16.60;;;9.40;;
25509;SDS011;13413;52.336;21.200;2022-12-29T14:48:54;15.70;;;9.70;;
25509;SDS011;13413;52.336;21.200;2022-12-29T14:51:51;16.90;;;9.10;;
25509;SDS011;13413;52.336;21.200;2022-12-29T14:54:56;13.90;;;8.70;;
25509;SDS011;13413;52.336;21.200;2022-12-29T15:06:17;16.00;;;9.80;;
25509;SDS011;13413;52.336;21.200;2022-12-29T15:09:12;20.80;;;10.70;;
25509;SDS011;13413;52.336;21.200;2022-12-29T15:12:18;15.70;;;9.50;;
25509;SDS011;13413;52.336;21.200;2022-12-29T15:15:21;17.80;;;10.80;;
25509;SDS011;13413;52.336;21.200;2022-12-29T15:18:22;17.50;;;9.80;;
25509;SDS011;13413;52.336;21.200;2022-12-29T15:21:19;17.50;;;10.40;;
25509;SDS011;13413;52.336;21.200;2022-12-29T15:24:16;24.30;;;10.80;;
25509;SDS011;13413;52.336;21.200;2022-12-29T15:27:12;20.10;;;11.50;;
25509;SDS011;13413;52.336;21.200;2022-12-29T15:30:13;20.90;;;10.70;;
25509;SDS011;13413;52.336;21.200;2022-12-29T15:33:11;18.70;;;10.90;;
25509;SDS011;13413;52.336;21.200;2022-12-29T15:36:13;24.30;;;13.40;;
25509;SDS011;13413;52.336;21.200;2022-12-29T15:39:19;23.40;;;13.60;;
25509;SDS011;13413;52.336;21.200;2022-12-29T15:48:42;24.80;;;13.30;;
25509;SDS011;13413;52.336;21.200;2022-12-29T15:51:37;46.10;;;18.20;;
25509;SDS011;13413;52.336;21.200;2022-12-29T15:54:33;19.50;;;12.30;;
25509;SDS011;13413;52.336;21.200;2022-12-29T15:57:29;29.50;;;14.60;;
25509;SDS011;13413;52.336;21.200;2022-12-29T16:00:30;24.80;;;13.40;;
25509;SDS011;13413;52.336;21.200;2022-12-29T16:03:28;44.20;;;18.30;;
25509;SDS011;13413;52.336;21.200;2022-12-29T16:06:28;37.90;;;18.90;;
25509;SDS011;13413;52.336;21.200;2022-12-29T16:09:31;27.90;;;14.60;;
25509;SDS011;13413;52.336;21.200;2022-12-29T16:12:29;38.30;;;18.50;;
25509;SDS011;13413;52.336;21.200;2022-12-29T16:15:25;42.70;;;18.70;;
25509;SDS011;13413;52.336;21.200;2022-12-29T16:18:21;40.30;;;21.70;;
25509;SDS011;13413;52.336;21.200;2022-12-29T16:21:20;36.20;;;17.70;;
25509;SDS011;13413;52.336;21.200;2022-12-29T16:24:18;93.40;;;41.50;;
25509;SDS011;13413;52.336;21.200;2022-12-29T16:27:19;26.00;;;14.40;;
25509;SDS011;13413;52.336;21.200;2022-12-29T16:30:19;31.30;;;17.00;;
25509;SDS011;13413;52.336;21.200;2022-12-29T16:33:35;26.80;;;16.70;;
25509;SDS011;13413;52.336;21.200;2022-12-29T16:36:40;21.80;;;13.60;;
25509;SDS011;13413;52.336;21.200;2022-12-29T16:39:47;43.80;;;25.60;;
25509;SDS011;13413;52.336;21.200;2022-12-29T16:42:46;25.70;;;16.30;;
25509;SDS011;13413;52.336;21.200;2022-12-29T16:49:18;30.30;;;18.70;;
25509;SDS011;13413;52.336;21.200;2022-12-29T16:52:12;31.40;;;16.30;;
25509;SDS011;13413;52.336;21.200;2022-12-29T16:55:16;22.60;;;12.50;;
25509;SDS011;13413;52.336;21.200;2022-12-29T16:58:12;23.20;;;13.20;;
25509;SDS011;13413;52.336;21.200;2022-12-29T17:01:13;23.90;;;14.60;;
25509;SDS011;13413;52.336;21.200;2022-12-29T17:04:07;26.70;;;12.80;;
25509;SDS011;13413;52.336;21.200;2022-12-29T17:10:00;19.70;;;11.70;;
25509;SDS011;13413;52.336;21.200;2022-12-29T17:12:54;19.00;;;12.10;;
25509;SDS011;13413;52.336;21.200;2022-12-29T17:15:48;20.40;;;12.50;;
25509;SDS011;13413;52.336;21.200;2022-12-29T17:18:42;23.70;;;13.50;;
25509;SDS011;13413;52.336;21.200;2022-12-29T17:27:09;21.90;;;13.60;;
25509;SDS011;13413;52.336;21.200;2022-12-29T17:30:23;19.30;;;12.80;;
25509;SDS011;13413;52.336;21.200;2022-12-29T17:33:19;23.50;;;13.20;;
25509;SDS011;13413;52.336;21.200;2022-12-29T17:36:14;22.20;;;13.00;;
25509;SDS011;13413;52.336;21.200;2022-12-29T17:39:08;19.10;;;12.40;;
25509;SDS011;13413;52.336;21.200;2022-12-29T17:42:02;23.10;;;12.90;;
25509;SDS011;13413;52.336;21.200;2022-12-29T17:44:56;23.80;;;12.40;;
25509;SDS011;13413;52.336;21.200;2022-12-29T17:47:50;19.50;;;11.80;;
25509;SDS011;13413;52.336;21.200;2022-12-29T17:50:44;21.30;;;12.50;;
25509;SDS011;13413;52.336;21.200;2022-12-29T17:53:39;24.20;;;12.90;;
25509;SDS011;13413;52.336;21.200;2022-12-29T17:56:33;21.60;;;12.30;;
25509;SDS011;13413;52.336;21.200;2022-12-29T17:59:27;21.40;;;12.70;;
25509;SDS011;13413;52.336;21.200;2022-12-29T18:02:24;21.20;;;11.40;;
25509;SDS011;13413;52.336;21.200;2022-12-29T18:05:22;15.70;;;9.90;;
25509;SDS011;13413;52.336;21.200;2022-12-29T18:08:17;19.70;;;12.00;;
25509;SDS011;13413;52.336;21.200;2022-12-29T18:11:19;18.20;;;10.90;;
25509;SDS011;13413;52.336;21.200;2022-12-29T18:14:18;19.70;;;11.30;;
25509;SDS011;13413;52.336;21.200;2022-12-29T18:17:12;21.10;;;11.70;;
25509;SDS011;13413;52.336;21.200;2022-12-29T18:20:27;18.50;;;10.70;;
25509;SDS011;13413;52.336;21.200;2022-12-29T18:23:22;20.70;;;11.40;;
25509;SDS011;13413;52.336;21.200;2022-12-29T18:26:18;18.20;;;10.90;;
25509;SDS011;13413;52.336;21.200;2022-12-29T18:29:14;20.00;;;11.40;;
25509;SDS011;13413;52.336;21.200;2022-12-29T18:32:10;23.90;;;13.40;;
25509;SDS011;13413;52.336;21.200;2022-12-29T18:35:08;22.70;;;12.40;;
25509;SDS011;13413;52.336;21.200;2022-12-29T18:38:08;21.30;;;12.60;;
25509;SDS011;13413;52.336;21.200;2022-12-29T18:41:02;20.40;;;11.40;;
25509;SDS011;13413;52.336;21.200;2022-12-29T18:43:57;19.20;;;12.80;;
25509;SDS011;13413;52.336;21.200;2022-12-29T18:46:51;20.10;;;12.70;;
25509;SDS011;13413;52.336;21.200;2022-12-29T18:49:45;21.00;;;12.70;;
25509;SDS011;13413;52.336;21.200;2022-12-29T18:52:39;19.60;;;12.90;;
25509;SDS011;13413;52.336;21.200;2022-12-29T18:55:33;22.70;;;13.60;;
25509;SDS011;13413;52.336;21.200;2022-12-29T18:58:27;26.40;;;14.60;;
25509;SDS011;13413;52.336;21.200;2022-12-29T19:01:21;26.00;;;14.70;;
25509;SDS011;13413;52.336;21.200;2022-12-29T19:04:29;24.00;;;13.60;;
25509;SDS011;13413;52.336;21.200;2022-12-29T19:10:38;26.20;;;10.40;;
25509;SDS011;13413;52.336;21.200;2022-12-29T19:13:33;26.40;;;15.20;;
25509;SDS011;13413;52.336;21.200;2022-12-29T19:16:27;23.30;;;13.00;;